createdAt,value
2022-08-27T00:01:45.386Z,8.40
2022-08-27T00:04:15.633Z,4.88
2022-08-27T00:06:46.392Z,7.68
2022-08-27T00:11:57.645Z,7.50
2022-08-27T00:14:28.926Z,6.32
2022-08-27T00:17:01.802Z,7.18
2022-08-27T00:19:32.126Z,9.88
2022-08-27T00:22:02.418Z,7.75
2022-08-27T00:24:32.663Z,8.45
2022-08-27T00:27:03.068Z,6.63
2022-08-27T00:32:08.049Z,7.97
2022-08-27T00:34:38.346Z,10.05
2022-08-27T00:37:09.463Z,9.80
2022-08-27T00:39:39.864Z,7.85
2022-08-27T00:42:10.764Z,8.07
2022-08-27T00:44:41.333Z,8.10
2022-08-27T00:49:56.577Z,8.77
2022-08-27T00:52:32.069Z,12.18
2022-08-27T00:55:08.030Z,7.78
2022-08-27T00:57:41.736Z,8.60
2022-08-27T01:00:19.053Z,8.93
2022-08-27T01:02:52.174Z,9.13
2022-08-27T01:05:26.605Z,8.88
2022-08-27T01:08:06.567Z,8.27
2022-08-27T01:10:37.644Z,9.48
2022-08-27T01:13:10.772Z,8.20
2022-08-27T01:15:44.842Z,11.77
2022-08-27T01:18:19.477Z,8.77
2022-08-27T01:21:05.152Z,8.77
2022-08-27T01:23:41.389Z,8.27
2022-08-27T01:26:18.045Z,12.32
2022-08-27T01:28:49.143Z,12.23
2022-08-27T01:31:19.508Z,11.38
2022-08-27T01:33:59.053Z,13.93
2022-08-27T01:36:29.511Z,16.40
2022-08-27T01:38:59.799Z,15.82
2022-08-27T01:41:33.396Z,15.18
2022-08-27T01:44:04.143Z,17.05
2022-08-27T01:46:34.479Z,17.88
2022-08-27T01:49:04.733Z,18.02
2022-08-27T01:51:34.953Z,19.27
2022-08-27T01:54:05.343Z,16.00
2022-08-27T01:56:38.158Z,16.27
2022-08-27T01:59:08.455Z,21.20
2022-08-27T02:01:39.556Z,19.75
2022-08-27T02:04:09.797Z,22.25
2022-08-27T02:06:40.187Z,22.42
2022-08-27T02:09:10.361Z,19.40
2022-08-27T02:11:44.841Z,20.45
2022-08-27T02:14:15.625Z,25.17
2022-08-27T02:16:46.351Z,20.83
2022-08-27T02:19:24.428Z,22.63
2022-08-27T02:21:54.713Z,24.52
2022-08-27T02:24:24.936Z,22.73
2022-08-27T02:26:58.528Z,24.73
2022-08-27T02:29:29.291Z,23.02
2022-08-27T02:32:00.074Z,23.13
2022-08-27T02:34:30.512Z,19.80
2022-08-27T02:37:00.699Z,21.73
2022-08-27T02:39:30.935Z,23.23
2022-08-27T02:42:04.102Z,21.88
2022-08-27T02:44:35.718Z,31.95
2022-08-27T02:47:06.110Z,25.27
2022-08-27T02:49:37.012Z,25.67
2022-08-27T02:52:07.655Z,24.38
2022-08-27T02:57:12.421Z,25.23
2022-08-27T02:59:42.664Z,29.13
2022-08-27T03:02:12.986Z,31.13
2022-08-27T03:04:43.819Z,28.55
2022-08-27T03:07:18.661Z,28.63
2022-08-27T03:09:49.287Z,27.98
2022-08-27T03:12:22.754Z,26.98
2022-08-27T03:14:55.096Z,28.23
2022-08-27T03:17:37.784Z,24.10
2022-08-27T03:20:11.268Z,29.45
2022-08-27T03:22:42.346Z,29.00
2022-08-27T03:25:13.068Z,27.38
2022-08-27T03:27:46.127Z,30.80
2022-08-27T03:30:21.201Z,31.27
2022-08-27T03:32:52.019Z,33.03
2022-08-27T03:35:24.104Z,30.30
2022-08-27T03:37:54.465Z,32.60
2022-08-27T03:40:24.844Z,33.17
2022-08-27T03:42:57.724Z,30.02
2022-08-27T03:45:28.050Z,31.50
2022-08-27T03:47:58.301Z,34.80
2022-08-27T03:50:29.018Z,32.85
2022-08-27T03:52:59.194Z,32.20
2022-08-27T03:55:29.602Z,28.75
2022-08-27T03:58:02.432Z,27.63
2022-08-27T04:00:32.898Z,29.55
2022-08-27T04:03:03.275Z,28.73
2022-08-27T04:05:33.544Z,33.42
2022-08-27T04:08:04.053Z,32.92
2022-08-27T04:10:34.946Z,26.98
2022-08-27T04:13:07.947Z,31.27
2022-08-27T04:15:40.473Z,34.60
2022-08-27T04:18:12.201Z,33.30
2022-08-27T04:20:42.584Z,34.35
2022-08-27T04:23:12.909Z,30.88
2022-08-27T04:25:43.819Z,41.20
2022-08-27T04:28:18.458Z,31.67
2022-08-27T04:30:49.953Z,33.97
2022-08-27T04:33:20.546Z,35.55
2022-08-27T04:35:50.751Z,33.08
2022-08-27T04:38:21.332Z,31.17
2022-08-27T04:43:36.512Z,35.05
2022-08-27T04:46:07.184Z,35.55
2022-08-27T04:48:38.531Z,33.22
2022-08-27T04:51:09.339Z,32.25
2022-08-27T04:53:42.688Z,35.00
2022-08-27T04:56:18.010Z,36.28
2022-08-27T04:58:51.034Z,35.72
2022-08-27T05:01:23.598Z,31.70
2022-08-27T05:03:54.581Z,30.33
2022-08-27T05:06:25.987Z,33.30
2022-08-27T05:08:57.642Z,37.15
2022-08-27T05:11:34.575Z,31.90
2022-08-27T05:14:10.479Z,28.65
2022-08-27T05:16:41.569Z,31.10
2022-08-27T05:19:14.766Z,28.83
2022-08-27T05:21:49.935Z,31.48
2022-08-27T05:24:21.450Z,31.52
2022-08-27T05:26:52.832Z,30.27
2022-08-27T05:29:25.674Z,30.50
2022-08-27T05:31:56.551Z,28.57
2022-08-27T05:34:27.685Z,26.67
2022-08-27T05:36:58.033Z,27.52
2022-08-27T05:39:28.287Z,29.60
2022-08-27T05:41:59.873Z,25.40
2022-08-27T05:44:41.303Z,25.05
2022-08-27T05:47:12.994Z,29.90
2022-08-27T05:49:43.198Z,31.83
2022-08-27T05:52:14.679Z,27.95
2022-08-27T05:54:44.932Z,26.77
2022-08-27T05:57:15.299Z,27.52
2022-08-27T06:00:00.550Z,27.00
2022-08-27T06:02:31.227Z,28.27
2022-08-27T06:05:01.461Z,33.80
2022-08-27T06:07:31.694Z,27.20
2022-08-27T06:10:03.628Z,26.02
2022-08-27T06:12:34.365Z,26.70
2022-08-27T06:15:08.808Z,26.60
2022-08-27T06:17:39.460Z,30.75
2022-08-27T06:22:41.193Z,31.80
2022-08-27T06:25:12.297Z,35.53
2022-08-27T06:27:42.635Z,30.33
2022-08-27T06:30:17.632Z,34.50
2022-08-27T06:32:47.998Z,32.88
2022-08-27T06:35:18.367Z,37.65
2022-08-27T06:37:48.624Z,37.35
2022-08-27T06:40:19.130Z,32.20
2022-08-27T06:45:22.261Z,33.72
2022-08-27T06:47:52.495Z,34.33
2022-08-27T06:50:27.115Z,31.58
2022-08-27T06:52:57.560Z,34.45
2022-08-27T06:55:27.787Z,32.72
2022-08-27T06:57:58.009Z,31.88
2022-08-27T07:00:30.900Z,29.48
2022-08-27T07:03:01.744Z,31.00
2022-08-27T07:05:32.117Z,32.83
2022-08-27T07:08:02.829Z,29.58
2022-08-27T07:10:35.077Z,29.27
2022-08-27T07:13:05.278Z,37.60
2022-08-27T07:15:41.954Z,30.20
2022-08-27T07:18:12.383Z,34.53
2022-08-27T07:23:14.834Z,36.50
2022-08-27T07:25:45.493Z,38.20
2022-08-27T07:30:48.329Z,42.83
2022-08-27T07:33:18.701Z,34.78
2022-08-27T07:35:49.664Z,36.95
2022-08-27T07:38:19.991Z,36.35
2022-08-27T07:40:52.442Z,35.10
2022-08-27T07:43:35.701Z,31.38
2022-08-27T07:46:09.085Z,30.23
2022-08-27T07:48:39.342Z,29.08
2022-08-27T07:51:17.413Z,32.15
2022-08-27T07:53:48.461Z,45.65
2022-08-27T07:56:19.512Z,37.60
2022-08-27T07:58:49.695Z,41.97
2022-08-27T08:01:24.151Z,34.50
2022-08-27T08:03:54.453Z,36.38
2022-08-27T08:06:25.010Z,33.55
2022-08-27T08:11:25.293Z,34.30
2022-08-27T08:13:55.548Z,33.92
2022-08-27T08:16:31.801Z,34.05
2022-08-27T08:19:03.066Z,30.60
2022-08-27T08:21:33.332Z,34.55
2022-08-27T08:24:03.597Z,31.33
2022-08-27T08:26:34.100Z,30.10
2022-08-27T08:29:05.062Z,31.33
2022-08-27T08:31:37.953Z,27.48
2022-08-27T08:34:08.190Z,28.35
2022-08-27T08:36:38.485Z,27.67
2022-08-27T08:39:08.776Z,32.83
2022-08-27T08:41:47.205Z,25.17
2022-08-27T08:44:35.623Z,27.60
2022-08-27T08:47:14.019Z,28.10
2022-08-27T08:49:54.811Z,26.23
2022-08-27T08:52:40.361Z,29.67
2022-08-27T08:55:36.050Z,27.77
2022-08-27T08:58:18.189Z,27.42
2022-08-27T09:00:54.623Z,32.28
2022-08-27T09:03:28.097Z,33.10
2022-08-27T09:06:05.725Z,28.13
2022-08-27T09:08:41.808Z,31.95
2022-08-27T09:11:24.271Z,30.23
2022-08-27T09:13:59.758Z,30.75
2022-08-27T09:16:30.298Z,26.85
2022-08-27T09:21:51.518Z,27.70
2022-08-27T09:24:33.697Z,28.48
2022-08-27T09:27:03.961Z,31.17
2022-08-27T09:29:34.272Z,34.00
2022-08-27T09:32:10.697Z,33.47
2022-08-27T09:34:46.665Z,31.40
2022-08-27T09:37:20.828Z,28.52
2022-08-27T09:39:54.913Z,31.30
2022-08-27T09:42:32.807Z,26.77
2022-08-27T09:45:03.269Z,36.72
2022-08-27T09:47:33.700Z,34.78
2022-08-27T09:50:11.065Z,27.15
2022-08-27T09:52:55.091Z,34.72
2022-08-27T09:55:41.667Z,29.23
2022-08-27T09:58:22.701Z,26.63
2022-08-27T10:01:04.063Z,29.73
2022-08-27T10:03:34.844Z,31.58
2022-08-27T10:06:08.829Z,26.45
2022-08-27T10:08:45.713Z,28.23
2022-08-27T10:11:23.064Z,28.42
2022-08-27T10:14:01.657Z,22.27
2022-08-27T10:16:58.577Z,24.70
2022-08-27T10:19:49.952Z,26.58
2022-08-27T10:22:39.083Z,33.20
2022-08-27T10:25:20.328Z,20.30
2022-08-27T10:28:02.002Z,21.90
2022-08-27T10:30:49.041Z,31.33
2022-08-27T10:33:29.494Z,26.02
2022-08-27T10:36:14.034Z,22.02
2022-08-27T10:38:56.377Z,22.85
2022-08-27T10:41:35.026Z,21.75
2022-08-27T10:44:32.329Z,23.63
2022-08-27T10:47:23.467Z,22.52
2022-08-27T10:50:06.465Z,25.70
2022-08-27T10:52:44.965Z,23.35
2022-08-27T10:55:27.655Z,27.58
2022-08-27T10:58:27.268Z,25.20
2022-08-27T11:01:05.164Z,26.90
2022-08-27T11:03:45.080Z,23.95
2022-08-27T11:06:25.736Z,25.07
2022-08-27T11:09:07.538Z,24.55
2022-08-27T11:14:41.692Z,25.77
2022-08-27T11:17:19.248Z,23.67
2022-08-27T11:19:57.698Z,21.85
2022-08-27T11:22:37.091Z,22.42
2022-08-27T11:25:23.317Z,22.10
2022-08-27T11:27:58.187Z,20.60
2022-08-27T11:30:42.234Z,18.23
2022-08-27T11:33:21.761Z,20.10
2022-08-27T11:36:16.546Z,20.95
2022-08-27T11:38:57.934Z,22.15
2022-08-27T11:42:05.317Z,21.90
2022-08-27T11:44:44.484Z,27.00
2022-08-27T11:47:18.476Z,23.83
2022-08-27T11:49:52.862Z,22.20
2022-08-27T11:52:30.025Z,22.35
2022-08-27T11:55:17.449Z,20.42
2022-08-27T11:57:48.008Z,23.35
2022-08-27T12:03:03.975Z,23.48
2022-08-27T12:05:45.052Z,23.85
2022-08-27T12:08:30.905Z,21.70
2022-08-27T12:11:23.582Z,21.98
2022-08-27T12:14:04.524Z,16.83
2022-08-27T12:16:48.664Z,18.98
2022-08-27T12:19:34.111Z,18.60
2022-08-27T12:22:26.479Z,18.88
2022-08-27T12:24:59.990Z,15.27
2022-08-27T12:27:37.362Z,15.68
2022-08-27T12:30:25.676Z,18.50
2022-08-27T12:33:01.335Z,20.48
2022-08-27T12:35:40.624Z,25.08
2022-08-27T12:38:18.837Z,21.75
2022-08-27T12:40:53.726Z,20.85
2022-08-27T12:43:27.784Z,11.70
2022-08-27T12:46:04.090Z,10.30
2022-08-27T12:48:43.860Z,11.05
2022-08-27T12:51:19.564Z,8.70
2022-08-27T12:53:55.683Z,9.35
2022-08-27T12:56:55.440Z,7.63
2022-08-27T13:00:02.326Z,9.63
2022-08-27T13:03:14.683Z,8.45
2022-08-27T13:05:50.900Z,10.18
2022-08-27T13:08:26.672Z,10.63
2022-08-27T13:10:57.915Z,11.02
2022-08-27T13:13:28.569Z,12.45
2022-08-27T13:18:31.662Z,15.85
2022-08-27T13:23:48.502Z,13.93
2022-08-27T13:26:25.736Z,15.68
2022-08-27T13:29:02.646Z,20.10
2022-08-27T13:31:35.902Z,18.70
2022-08-27T13:34:08.866Z,22.10
2022-08-27T13:36:59.756Z,21.52
2022-08-27T13:39:31.036Z,19.65
2022-08-27T13:42:03.202Z,18.13
2022-08-27T13:44:37.566Z,19.85
2022-08-27T13:47:11.673Z,23.13
2022-08-27T13:49:41.987Z,21.67
2022-08-27T13:52:27.294Z,24.40
2022-08-27T13:55:05.958Z,21.65
2022-08-27T13:57:45.837Z,24.83
2022-08-27T14:00:21.876Z,23.33
2022-08-27T14:02:56.287Z,26.52
2022-08-27T14:05:36.987Z,23.27
2022-08-27T14:08:20.077Z,24.92
2022-08-27T14:10:53.679Z,27.25
2022-08-27T14:13:28.922Z,28.30
2022-08-27T14:16:01.526Z,26.85
2022-08-27T14:18:58.290Z,28.98
2022-08-27T14:21:26.177Z,22.10
2022-08-27T14:26:29.713Z,23.90
2022-08-27T14:29:01.344Z,24.42
2022-08-27T14:31:31.875Z,24.63
2022-08-27T14:34:02.609Z,26.33
2022-08-27T14:36:34.746Z,21.80
2022-08-27T14:39:09.105Z,25.00
2022-08-27T14:41:42.830Z,23.67
2022-08-27T14:44:15.144Z,24.02
2022-08-27T14:46:45.478Z,22.67
2022-08-27T14:49:25.127Z,24.17
2022-08-27T14:51:55.450Z,21.30
2022-08-27T14:54:29.150Z,23.52
2022-08-27T14:57:06.354Z,20.95
2022-08-27T14:59:36.802Z,21.08
2022-08-27T15:04:40.835Z,18.67
2022-08-27T15:07:14.735Z,21.70
2022-08-27T15:09:48.201Z,15.82
2022-08-27T15:12:26.552Z,18.15
2022-08-27T15:14:57.337Z,12.23
2022-08-27T15:20:08.377Z,10.50
2022-08-27T15:22:43.939Z,13.93
2022-08-27T15:25:18.530Z,5.72
2022-08-27T15:27:48.819Z,6.10
2022-08-27T15:30:21.302Z,6.00
2022-08-27T15:32:52.063Z,7.72
2022-08-27T15:35:26.971Z,9.57
2022-08-27T15:37:59.573Z,6.60
2022-08-27T15:40:36.425Z,9.90
2022-08-27T15:43:09.220Z,9.02
2022-08-27T15:45:39.526Z,8.38
2022-08-27T15:48:10.828Z,6.60
2022-08-27T15:50:41.498Z,7.38
2022-08-27T15:53:13.753Z,9.38
2022-08-27T15:55:47.694Z,7.85
2022-08-27T15:58:17.873Z,6.10
2022-08-27T16:00:49.334Z,7.65
2022-08-27T16:03:35.594Z,5.78
2022-08-27T16:06:07.583Z,6.90
2022-08-27T16:08:41.866Z,7.72
2022-08-27T16:11:15.152Z,8.68
2022-08-27T16:13:46.175Z,9.52
2022-08-27T16:16:18.254Z,8.55
2022-08-27T16:18:48.511Z,10.10
2022-08-27T16:21:18.812Z,11.32
2022-08-27T16:23:49.214Z,9.45
2022-08-27T16:26:22.179Z,11.48
2022-08-27T16:28:52.706Z,12.57
2022-08-27T16:31:23.140Z,9.02
2022-08-27T16:33:53.487Z,10.23
2022-08-27T16:36:23.679Z,11.18
2022-08-27T16:38:54.440Z,11.00
2022-08-27T16:41:27.522Z,11.00
2022-08-27T16:43:58.951Z,8.68
2022-08-27T16:46:29.154Z,11.80
2022-08-27T16:49:11.837Z,12.68
2022-08-27T16:51:43.644Z,11.00
2022-08-27T16:54:16.745Z,11.98
2022-08-27T16:56:49.830Z,14.95
2022-08-27T16:59:20.205Z,12.55
2022-08-27T17:01:53.220Z,14.63
2022-08-27T17:04:30.498Z,15.93
2022-08-27T17:07:03.765Z,9.70
2022-08-27T17:09:35.013Z,7.55
2022-08-27T17:12:08.632Z,8.25
2022-08-27T17:14:39.594Z,6.32
2022-08-27T17:17:10.825Z,4.53
2022-08-27T17:19:41.139Z,7.25
2022-08-27T17:22:11.962Z,6.15
2022-08-27T17:24:42.147Z,5.68
2022-08-27T17:27:15.115Z,6.45
2022-08-27T17:29:45.255Z,7.05
2022-08-27T17:32:15.705Z,6.47
2022-08-27T17:34:46.303Z,7.68
2022-08-27T17:39:49.166Z,8.05
2022-08-27T17:42:22.509Z,10.02
2022-08-27T17:44:52.624Z,7.10
2022-08-27T17:47:24.844Z,9.18
2022-08-27T17:49:56.236Z,7.70
2022-08-27T17:52:26.462Z,8.88
2022-08-27T17:54:58.731Z,8.15
2022-08-27T17:57:40.278Z,8.23
2022-08-27T18:00:14.946Z,7.68
2022-08-27T18:02:47.643Z,7.53
2022-08-27T18:05:20.644Z,6.78
2022-08-27T18:07:51.056Z,105.05
2022-08-27T18:10:26.923Z,48.63
2022-08-27T18:13:01.095Z,11.20
2022-08-27T18:15:34.342Z,10.18
2022-08-27T18:18:05.276Z,8.50
2022-08-27T18:20:37.170Z,7.70
2022-08-27T18:23:11.046Z,7.97
2022-08-27T18:25:42.672Z,8.25
2022-08-27T18:28:17.062Z,8.07
2022-08-27T18:30:49.344Z,10.07
2022-08-27T18:33:19.769Z,7.38
2022-08-27T18:35:49.996Z,7.00
2022-08-27T18:38:22.048Z,7.65
2022-08-27T18:40:53.267Z,7.28
2022-08-27T18:43:34.714Z,7.25
2022-08-27T18:46:06.142Z,7.38
2022-08-27T18:48:37.403Z,7.95
2022-08-27T18:51:11.774Z,7.50
2022-08-27T18:53:43.013Z,11.30
2022-08-27T18:56:17.229Z,8.40
2022-08-27T18:58:51.827Z,8.45
2022-08-27T19:01:27.932Z,9.77
2022-08-27T19:03:59.921Z,8.70
2022-08-27T19:06:30.191Z,8.48
2022-08-27T19:09:00.512Z,15.77
2022-08-27T19:11:31.514Z,12.52
2022-08-27T19:14:04.299Z,9.48
2022-08-27T19:16:44.961Z,10.75
2022-08-27T19:21:51.390Z,10.55
2022-08-27T19:24:22.556Z,13.18
2022-08-27T19:26:53.714Z,11.07
2022-08-27T19:29:26.526Z,14.48
2022-08-27T19:31:56.834Z,13.05
2022-08-27T19:34:27.056Z,11.85
2022-08-27T19:37:05.568Z,11.18
2022-08-27T19:39:37.284Z,12.13
2022-08-27T19:42:08.780Z,13.13
2022-08-27T19:44:41.636Z,15.95
2022-08-27T19:47:14.297Z,19.02
2022-08-27T19:49:46.417Z,17.65
2022-08-27T19:52:16.657Z,17.73
2022-08-27T19:55:12.110Z,16.13
2022-08-27T19:57:37.888Z,13.07
2022-08-27T20:00:15.083Z,16.33
2022-08-27T20:02:45.308Z,14.60
2022-08-27T20:05:18.294Z,11.27
2022-08-27T20:07:49.769Z,10.52
2022-08-27T20:12:52.080Z,10.75
2022-08-27T20:15:25.847Z,9.40
2022-08-27T20:17:59.430Z,8.07
2022-08-27T20:20:31.716Z,8.60
2022-08-27T20:23:02.945Z,9.70
2022-08-27T20:25:34.280Z,9.20
2022-08-27T20:28:28.289Z,8.80
2022-08-27T20:30:59.620Z,9.32
2022-08-27T20:33:29.961Z,10.63
2022-08-27T20:36:03.117Z,11.27
2022-08-27T20:38:33.521Z,12.38
2022-08-27T20:41:04.135Z,10.70
2022-08-27T20:46:07.420Z,12.93
2022-08-27T20:48:41.266Z,14.52
2022-08-27T20:51:11.997Z,15.98
2022-08-27T20:53:42.212Z,15.63
2022-08-27T20:56:12.463Z,13.32
2022-08-27T20:58:55.150Z,14.65
2022-08-27T21:01:28.167Z,15.23
2022-08-27T21:04:00.737Z,15.77
2022-08-27T21:06:33.380Z,16.17
2022-08-27T21:09:03.897Z,18.20
2022-08-27T21:11:34.165Z,14.32
2022-08-27T21:14:04.776Z,20.90
2022-08-27T21:16:39.189Z,19.17
2022-08-27T21:19:09.402Z,17.75
2022-08-27T21:21:39.613Z,19.52
2022-08-27T21:24:10.021Z,19.42
2022-08-27T21:26:40.397Z,21.77
2022-08-27T21:29:10.579Z,18.50
2022-08-27T21:31:43.654Z,18.10
2022-08-27T21:34:13.964Z,20.63
2022-08-27T21:36:44.152Z,18.48
2022-08-27T21:39:14.375Z,21.52
2022-08-27T21:41:44.595Z,22.58
2022-08-27T21:44:14.809Z,19.85
2022-08-27T21:46:47.635Z,19.40
2022-08-27T21:49:17.929Z,20.55
2022-08-27T21:51:48.138Z,22.48
2022-08-27T21:54:18.485Z,22.00
2022-08-27T21:56:49.082Z,24.00
2022-08-27T22:09:32.514Z,28.23
2022-08-27T22:12:03.346Z,27.15
2022-08-27T22:14:33.827Z,27.20
2022-08-27T22:17:06.973Z,25.48
2022-08-27T22:19:37.192Z,26.20
2022-08-27T22:22:07.668Z,33.88
2022-08-27T22:24:37.859Z,23.75
2022-08-27T22:27:08.446Z,24.75
2022-08-27T22:29:38.824Z,27.70
2022-08-27T22:32:11.667Z,22.52
2022-08-27T22:34:42.176Z,23.88
2022-08-27T22:37:12.413Z,25.15
2022-08-27T22:39:42.707Z,25.70
2022-08-27T22:44:48.316Z,27.45
2022-08-27T22:47:21.248Z,24.50
2022-08-27T22:49:52.816Z,27.38
2022-08-27T22:52:28.308Z,27.50
2022-08-27T22:54:58.709Z,29.92
2022-08-27T22:57:29.488Z,28.75
2022-08-27T23:00:00.741Z,28.05
2022-08-27T23:02:33.482Z,29.25
2022-08-27T23:05:06.626Z,30.13
2022-08-27T23:07:37.690Z,29.00
2022-08-27T23:10:10.387Z,31.23
2022-08-27T23:12:40.896Z,28.48
2022-08-27T23:15:18.606Z,26.42
2022-08-27T23:17:51.876Z,26.83
2022-08-27T23:20:23.889Z,27.85
2022-08-27T23:22:55.862Z,32.15
2022-08-27T23:25:40.871Z,26.65
2022-08-27T23:28:15.407Z,25.75
2022-08-27T23:30:47.190Z,25.23
2022-08-27T23:33:20.180Z,25.65
2022-08-27T23:35:51.912Z,25.80
2022-08-27T23:38:25.076Z,23.40
2022-08-27T23:40:55.996Z,24.70
2022-08-27T23:43:26.603Z,23.75
2022-08-27T23:45:57.433Z,21.10
2022-08-27T23:48:30.606Z,19.90
2022-08-27T23:51:00.857Z,19.95
2022-08-27T23:53:31.055Z,17.13
2022-08-27T23:56:01.229Z,16.15
2022-08-27T23:58:31.565Z,14.98
